createdAt,value
2022-12-17T00:02:10.365Z,16.4
2022-12-17T00:07:50.745Z,16.4
2022-12-17T00:13:19.385Z,16.3
2022-12-17T00:18:44.280Z,16.1
2022-12-17T00:24:13.023Z,16.1
2022-12-17T00:29:53.937Z,16.3
2022-12-17T00:35:34.468Z,16.3
2022-12-17T00:41:13.516Z,16.2
2022-12-17T00:46:38.231Z,16.3
2022-12-17T00:52:03.388Z,16.4
2022-12-17T00:57:29.368Z,16.3
2022-12-17T01:03:12.938Z,16.3
2022-12-17T01:08:19.809Z,16.4
2022-12-17T01:14:03.376Z,16.3
2022-12-17T01:19:28.991Z,16.3
2022-12-17T01:24:53.738Z,16.4
2022-12-17T01:30:34.807Z,16.3
2022-12-17T01:36:18.384Z,16.4
2022-12-17T01:41:55.628Z,16.4
2022-12-17T01:47:34.732Z,16.3
2022-12-17T01:53:12.804Z,16.2
2022-12-17T01:58:34.725Z,16.1
2022-12-17T02:03:42.838Z,16.1
2022-12-17T02:09:05.202Z,16.1
2022-12-17T02:14:27.217Z,16.3
2022-12-17T02:19:49.669Z,16.3
2022-12-17T02:25:28.085Z,16.1
2022-12-17T02:30:49.901Z,16.3
2022-12-17T02:36:29.869Z,16.3
2022-12-17T02:42:09.176Z,16.1
2022-12-17T02:47:46.962Z,16.3
2022-12-17T02:53:08.621Z,16.3
2022-12-17T02:58:34.064Z,16.2
2022-12-17T03:04:13.062Z,16.2
2022-12-17T03:10:26.120Z,16.3
2022-12-17T03:16:05.563Z,16.2
2022-12-17T03:21:43.173Z,16.3
2022-12-17T03:27:21.637Z,16.4
2022-12-17T03:33:05.002Z,16.3
2022-12-17T03:38:27.562Z,16.3
2022-12-17T03:44:04.259Z,16.4
2022-12-17T03:49:42.238Z,16.3
2022-12-17T03:55:03.468Z,16.3
2022-12-17T04:00:40.878Z,16.4
2022-12-17T04:06:27.138Z,16.3
2022-12-17T04:12:04.313Z,16.2
2022-12-17T04:17:48.537Z,16.1
2022-12-17T04:23:10.929Z,16
2022-12-17T04:28:47.102Z,16.2
2022-12-17T04:34:31.325Z,16.3
2022-12-17T04:40:09.351Z,16.1
2022-12-17T04:45:47.146Z,16.2
2022-12-17T04:51:09.625Z,16.3
2022-12-17T04:56:47.540Z,16.2
2022-12-17T05:02:25.459Z,16.1
2022-12-17T05:07:49.343Z,16.3
2022-12-17T05:13:27.615Z,16.3
2022-12-17T05:19:11.811Z,16.2
2022-12-17T05:24:53.331Z,16.3
2022-12-17T05:30:39.245Z,16.4
2022-12-17T05:36:17.494Z,16.3
2022-12-17T05:41:55.139Z,16.3
2022-12-17T05:47:33.716Z,16.4
2022-12-17T05:53:15.560Z,16.3
2022-12-17T05:58:43.610Z,16.3
2022-12-17T06:04:23.539Z,16.4
2022-12-17T06:09:45.009Z,16.4
2022-12-17T06:15:07.923Z,16.3
2022-12-17T06:20:32.150Z,16.3
2022-12-17T06:26:10.145Z,16.4
2022-12-17T06:31:48.026Z,16.3
2022-12-17T06:37:29.979Z,15.8
2022-12-17T06:43:11.171Z,16.2
2022-12-17T06:48:50.205Z,16.3
2022-12-17T06:54:29.366Z,16.1
2022-12-17T07:00:11.217Z,16.3
2022-12-17T07:05:50.765Z,16.3
2022-12-17T07:11:37.039Z,16.1
2022-12-17T07:17:14.502Z,16.2
2022-12-17T07:22:36.597Z,16.3
2022-12-17T07:28:00.510Z,16.3
2022-12-17T07:33:43.029Z,16.1
2022-12-17T07:39:21.469Z,16.3
2022-12-17T07:45:00.956Z,16.3
2022-12-17T07:50:38.019Z,16.2
2022-12-17T07:56:04.777Z,16.3
2022-12-17T08:01:43.783Z,16.4
2022-12-17T08:07:27.570Z,16.3
2022-12-17T08:13:08.358Z,16.3
2022-12-17T08:18:24.468Z,16.4
2022-12-17T08:23:49.850Z,16.4
2022-12-17T08:30:09.589Z,16.3
2022-12-17T08:35:49.474Z,16.5
2022-12-17T08:41:26.331Z,16.4
2022-12-17T08:47:11.593Z,16.3
2022-12-17T08:52:49.648Z,16.4
2022-12-17T08:58:38.845Z,16.4
2022-12-17T09:04:08.314Z,16.3
2022-12-17T09:09:46.359Z,16.3
2022-12-17T09:15:23.687Z,16.4
2022-12-17T09:21:02.767Z,16.3
2022-12-17T09:26:47.070Z,16.3
2022-12-17T09:32:28.242Z,16.4
2022-12-17T09:38:13.181Z,16.3
2022-12-17T09:43:57.073Z,16.3
2022-12-17T09:49:23.078Z,16.4
2022-12-17T09:54:45.777Z,16.3
2022-12-17T10:00:08.654Z,16.3
2022-12-17T10:05:49.883Z,16.4
2022-12-17T10:11:32.777Z,16.3
2022-12-17T10:17:13.500Z,16.3
2022-12-17T10:22:55.147Z,16.4
2022-12-17T10:28:33.459Z,16.4
2022-12-17T10:34:00.311Z,16.3
2022-12-17T10:39:37.372Z,16.4
2022-12-17T10:45:21.387Z,16.4
2022-12-17T10:51:04.431Z,16.3
2022-12-17T10:56:47.209Z,16.4
2022-12-17T11:02:32.581Z,16.5
2022-12-17T11:08:01.839Z,16.4
2022-12-17T11:13:54.528Z,16.4
2022-12-17T11:19:35.440Z,16.5
2022-12-17T11:25:13.457Z,16.4
2022-12-17T11:30:50.458Z,16.3
2022-12-17T11:36:32.626Z,16.6
2022-12-17T11:42:16.763Z,16.5
2022-12-17T11:47:24.316Z,16.4
2022-12-17T11:53:05.317Z,16.5
2022-12-17T11:58:50.273Z,16.6
2022-12-17T12:04:37.254Z,16.5
2022-12-17T12:10:21.717Z,16.4
2022-12-17T12:15:59.980Z,16.6
2022-12-17T12:21:38.278Z,16.6
2022-12-17T12:27:17.772Z,16.5
2022-12-17T12:33:05.569Z,16.6
2022-12-17T12:38:46.485Z,16.8
2022-12-17T12:44:23.747Z,16.6
2022-12-17T12:50:02.203Z,16.7
2022-12-17T12:55:43.426Z,16.8
2022-12-17T13:01:27.707Z,16.8
2022-12-17T13:07:11.609Z,16.6
2022-12-17T13:12:38.549Z,16.8
2022-12-17T13:18:20.811Z,16.8
2022-12-17T13:24:05.031Z,16.6
2022-12-17T13:29:49.250Z,16.7
2022-12-17T13:35:14.083Z,16.8
2022-12-17T13:40:52.514Z,16.7
2022-12-17T13:46:31.556Z,16.6
2022-12-17T13:52:45.605Z,16.8
2022-12-17T13:58:24.811Z,16.8
2022-12-17T14:04:38.033Z,16.6
2022-12-17T14:10:15.478Z,16.8
2022-12-17T14:15:53.347Z,16.8
2022-12-17T14:21:18.446Z,16.6
2022-12-17T14:27:00.230Z,16.8
2022-12-17T14:33:22.498Z,16.8
2022-12-17T14:39:30.583Z,16.6
2022-12-17T14:45:12.090Z,16.6
2022-12-17T14:50:51.021Z,16.8
2022-12-17T14:56:29.043Z,16.8
2022-12-17T15:02:12.593Z,16.6
2022-12-17T15:07:36.384Z,16.8
2022-12-17T15:13:13.678Z,16.7
2022-12-17T15:18:41.023Z,16.6
2022-12-17T15:24:08.042Z,16.7
2022-12-17T15:29:38.693Z,16.8
2022-12-17T15:35:04.635Z,16.6
2022-12-17T15:40:45.867Z,16.5
2022-12-17T15:46:26.001Z,16.7
2022-12-17T15:52:10.753Z,16.6
2022-12-17T15:57:51.827Z,16.5
2022-12-17T16:02:59.858Z,16.7
2022-12-17T16:08:44.841Z,16.6
2022-12-17T16:14:12.762Z,16.4
2022-12-17T16:19:39.991Z,16.5
2022-12-17T16:25:08.260Z,16.6
2022-12-17T16:30:46.113Z,16.6
2022-12-17T16:36:31.423Z,16.4
2022-12-17T16:42:14.344Z,16.6
2022-12-17T16:47:53.622Z,16.6
2022-12-17T16:53:39.359Z,16.5
2022-12-17T16:59:06.864Z,16.7
2022-12-17T17:04:51.144Z,16.6
2022-12-17T17:10:28.836Z,16.5
2022-12-17T17:15:51.394Z,16.6
2022-12-17T17:22:06.457Z,16.7
2022-12-17T17:28:04.243Z,16.6
2022-12-17T17:34:22.941Z,16.5
2022-12-17T17:40:02.152Z,16.7
2022-12-17T17:45:40.446Z,16.6
2022-12-17T17:51:39.244Z,16.4
2022-12-17T17:57:38.173Z,16.6
2022-12-17T18:03:24.219Z,16.6
2022-12-17T18:09:30.342Z,16.4
2022-12-17T18:15:45.458Z,16.6
2022-12-17T18:21:11.003Z,16.6
2022-12-17T18:26:48.929Z,16.4
2022-12-17T18:32:27.764Z,16.6
2022-12-17T18:37:49.935Z,16.6
2022-12-17T18:43:33.477Z,16.4
2022-12-17T18:49:13.702Z,16.3
2022-12-17T18:55:03.045Z,16.4
2022-12-17T19:01:10.385Z,16.3
2022-12-17T19:06:54.444Z,16.3
2022-12-17T19:12:34.332Z,16.4
2022-12-17T19:18:13.231Z,16.4
2022-12-17T19:23:50.995Z,16.3
2022-12-17T19:29:13.546Z,16.6
2022-12-17T19:34:55.422Z,16.6
2022-12-17T19:40:38.393Z,16.5
2022-12-17T19:46:16.140Z,16.6
2022-12-17T19:51:55.346Z,16.6
2022-12-17T19:57:43.031Z,16.6
2022-12-17T20:03:23.892Z,16.6
2022-12-17T20:09:01.018Z,16.7
2022-12-17T20:14:44.824Z,16.6
2022-12-17T20:20:22.675Z,16.6
2022-12-17T20:25:59.993Z,16.8
2022-12-17T20:31:07.256Z,16.7
2022-12-17T20:36:49.724Z,16.5
2022-12-17T20:42:14.834Z,16.6
2022-12-17T20:47:57.125Z,16.6
2022-12-17T20:53:19.878Z,16.6
2022-12-17T20:59:03.132Z,16.7
2022-12-17T21:04:44.671Z,16.7
2022-12-17T21:10:28.731Z,16.6
2022-12-17T21:15:42.521Z,16.7
2022-12-17T21:21:14.809Z,16.7
2022-12-17T21:26:43.529Z,16.6
2022-12-17T21:31:37.540Z,16.6
2022-12-17T21:36:32.386Z,16.8
2022-12-17T21:42:01.588Z,16.7
2022-12-17T21:47:42.786Z,16.6
2022-12-17T21:53:26.999Z,16.6
2022-12-17T21:58:51.286Z,16.6
2022-12-17T22:04:44.483Z,16.5
2022-12-17T22:12:02.180Z,16.6
2022-12-17T22:17:40.968Z,16.6
2022-12-17T22:23:22.171Z,16.5
2022-12-17T22:28:33.185Z,16.6
2022-12-17T22:38:17.903Z,16.6
2022-12-17T22:50:02.308Z,16.6
2022-12-17T22:57:19.141Z,16.5
2022-12-17T23:03:20.872Z,16.6
2022-12-17T23:09:00.744Z,16.6
2022-12-17T23:14:38.536Z,16.4
2022-12-17T23:20:16.220Z,16.4
2022-12-17T23:25:42.318Z,16.6
2022-12-17T23:31:19.359Z,16.4
2022-12-17T23:36:42.115Z,16.4
2022-12-17T23:42:24.709Z,16.5
2022-12-17T23:48:03.267Z,16.4
2022-12-17T23:53:45.893Z,16.3
2022-12-17T23:59:24.477Z,16.4
